createdAt,value
2017-03-13T06:18:00.615Z,45
2017-03-13T06:18:41.286Z,50
2017-03-13T06:19:21.962Z,50
2017-03-13T06:20:15.492Z,50
2017-03-13T06:20:56.144Z,50
2017-03-13T06:21:38.754Z,55
2017-03-13T06:22:19.404Z,55
2017-03-13T06:23:00.059Z,55
2017-03-13T06:23:40.646Z,55
2017-03-13T06:24:21.213Z,60
2017-03-13T06:25:01.795Z,60
2017-03-13T06:25:42.460Z,60
2017-03-13T06:26:23.045Z,60
2017-03-13T06:27:03.613Z,65
2017-03-13T06:27:44.235Z,65
2017-03-13T06:28:24.875Z,65
2017-03-13T06:29:05.448Z,65
2017-03-13T06:29:46.073Z,65
2017-03-13T06:30:26.724Z,70
2017-03-13T06:31:07.378Z,70
2017-03-13T06:31:48.038Z,70
2017-03-13T06:32:28.689Z,70
2017-03-13T06:33:09.330Z,70
2017-03-13T06:33:49.891Z,75
2017-03-13T06:34:30.564Z,75
2017-03-13T06:35:11.198Z,75
2017-03-13T06:35:51.777Z,75
2017-03-13T06:36:32.406Z,75
2017-03-13T06:37:13.046Z,75
2017-03-13T06:37:53.601Z,80
2017-03-13T06:38:34.245Z,80
2017-03-13T06:39:14.924Z,80
2017-03-13T06:39:55.612Z,80
2017-03-13T06:40:36.189Z,85
2017-03-13T06:41:16.854Z,85
2017-03-13T06:41:57.516Z,85
2017-03-13T06:42:38.214Z,90
2017-03-13T06:43:18.773Z,90
2017-03-13T06:43:59.415Z,90
2017-03-13T06:44:40.028Z,95
2017-03-13T06:45:20.681Z,95
2017-03-13T06:46:01.338Z,95
2017-03-13T06:46:41.981Z,95
2017-03-13T06:47:22.646Z,95
2017-03-13T06:48:03.311Z,95
2017-03-13T06:48:43.952Z,95
2017-03-13T06:49:24.528Z,100
2017-03-13T06:50:05.157Z,100
2017-03-13T06:50:45.792Z,100
2017-03-13T06:51:26.359Z,100
2017-03-13T06:52:07.000Z,100
2017-03-13T06:52:47.658Z,105
2017-03-13T06:53:28.225Z,105
2017-03-13T06:54:08.879Z,105
2017-03-13T06:54:49.508Z,105
2017-03-13T06:55:30.169Z,105
2017-03-13T06:56:10.829Z,110
2017-03-13T06:56:51.493Z,110
2017-03-13T06:57:32.134Z,110
2017-03-13T06:58:12.789Z,110
2017-03-13T06:58:53.466Z,110
2017-03-13T06:59:34.135Z,115
2017-03-13T07:00:14.681Z,110
2017-03-13T07:00:55.259Z,115
2017-03-13T07:01:35.934Z,115
2017-03-13T07:02:16.533Z,115
2017-03-13T07:02:57.091Z,115
2017-03-13T07:03:37.686Z,115
2017-03-13T07:04:18.354Z,115
2017-03-13T07:04:58.940Z,115
2017-03-13T07:05:39.498Z,120
2017-03-13T07:06:20.105Z,120
2017-03-13T07:07:00.763Z,120
2017-03-13T07:07:41.452Z,120
2017-03-13T07:08:22.220Z,120
2017-03-13T07:09:02.961Z,120
2017-03-13T07:09:43.614Z,120
2017-03-13T07:10:24.268Z,120
2017-03-13T07:11:04.918Z,120
2017-03-13T07:11:45.565Z,120
2017-03-13T07:12:26.224Z,120
2017-03-13T07:13:06.877Z,120
2017-03-13T07:13:47.529Z,125
2017-03-13T07:14:28.151Z,125
2017-03-13T07:15:08.840Z,125
2017-03-13T07:15:49.451Z,125
2017-03-13T07:16:30.094Z,125
2017-03-13T07:17:10.696Z,125
2017-03-13T07:17:51.348Z,125
2017-03-13T07:18:31.965Z,125
2017-03-13T07:19:12.618Z,125
2017-03-13T07:19:53.314Z,130
2017-03-13T07:20:33.929Z,130
2017-03-13T07:21:14.577Z,130
2017-03-13T07:21:55.231Z,130
2017-03-13T07:22:35.927Z,135
2017-03-13T07:23:16.689Z,135
2017-03-13T07:23:58.326Z,135
2017-03-13T07:24:39.056Z,135
2017-03-13T07:25:19.727Z,135
2017-03-13T07:26:00.373Z,140
2017-03-13T07:26:41.016Z,140
2017-03-13T07:27:21.673Z,140
2017-03-13T07:28:02.337Z,140
2017-03-13T07:28:43.022Z,145
2017-03-13T07:29:23.732Z,145
2017-03-13T07:30:04.395Z,150
2017-03-13T07:30:46.088Z,150
2017-03-13T07:31:26.755Z,150
2017-03-13T07:32:07.373Z,150
2017-03-13T07:32:48.128Z,155
2017-03-13T07:33:28.784Z,155
2017-03-13T07:34:09.343Z,160
2017-03-13T07:34:50.154Z,160
2017-03-13T07:35:30.725Z,160
2017-03-13T07:36:11.458Z,165
2017-03-13T07:36:52.033Z,165
2017-03-13T07:37:32.589Z,165
2017-03-13T07:38:13.193Z,170
2017-03-13T07:38:53.760Z,170
2017-03-13T07:39:34.331Z,170
2017-03-13T07:40:14.946Z,175
2017-03-13T07:40:57.518Z,175
2017-03-13T07:41:38.098Z,175
2017-03-13T07:42:19.696Z,180
2017-03-13T07:43:01.271Z,180
2017-03-13T07:43:42.885Z,180
2017-03-13T07:44:24.463Z,180
2017-03-13T07:45:06.041Z,180
2017-03-13T07:45:46.606Z,180
2017-03-13T07:46:27.201Z,180
2017-03-13T07:47:08.798Z,180
2017-03-13T07:47:49.459Z,180
2017-03-13T07:48:30.098Z,180
2017-03-13T07:49:10.780Z,180
2017-03-13T07:49:51.356Z,180
2017-03-13T07:50:36.678Z,185
2017-03-13T07:51:17.356Z,180
2017-03-13T07:51:57.950Z,180
2017-03-13T07:52:39.536Z,180
2017-03-13T07:53:22.247Z,180
2017-03-13T07:54:02.937Z,180
2017-03-13T07:54:49.324Z,175
2017-03-13T07:55:29.977Z,175
2017-03-13T07:56:11.645Z,175
2017-03-13T07:56:56.801Z,175
2017-03-13T07:57:38.395Z,170
2017-03-13T07:58:19.964Z,170
2017-03-13T07:59:01.541Z,170
2017-03-13T07:59:43.113Z,170
2017-03-13T08:00:25.668Z,165
2017-03-13T08:01:07.274Z,165
2017-03-13T08:01:47.935Z,165
2017-03-13T08:02:28.586Z,165
2017-03-13T08:03:11.186Z,165
2017-03-13T08:03:51.790Z,165
2017-03-13T08:04:32.454Z,165
2017-03-13T08:05:18.047Z,165
2017-03-13T08:06:03.338Z,165
2017-03-13T08:06:43.878Z,165
2017-03-13T08:07:25.502Z,165
2017-03-13T08:08:10.969Z,170
2017-03-13T08:08:57.301Z,170
2017-03-13T08:09:37.885Z,170
2017-03-13T08:10:19.529Z,175
2017-03-13T08:11:01.173Z,175
2017-03-13T08:11:42.758Z,175
2017-03-13T08:12:23.309Z,180
2017-03-13T08:13:04.895Z,180
2017-03-13T08:13:45.457Z,185
2017-03-13T08:14:26.035Z,185
2017-03-13T08:15:07.620Z,185
2017-03-13T08:15:48.163Z,185
2017-03-13T08:16:28.786Z,185
2017-03-13T08:17:09.363Z,185
2017-03-13T08:17:51.998Z,185
2017-03-13T08:18:32.576Z,185
2017-03-13T08:19:14.145Z,190
2017-03-13T08:19:54.727Z,185
2017-03-13T08:20:35.277Z,185
2017-03-13T08:21:15.840Z,185
2017-03-13T08:21:56.414Z,185
2017-03-13T08:22:37.978Z,185
2017-03-13T08:23:18.558Z,180
2017-03-13T08:24:00.146Z,180
2017-03-13T08:24:40.711Z,180
2017-03-13T08:25:21.289Z,175
2017-03-13T08:26:01.902Z,175
2017-03-13T08:26:42.462Z,175
2017-03-13T08:27:23.048Z,170
2017-03-13T08:28:03.738Z,170
2017-03-13T08:28:45.417Z,170
2017-03-13T08:29:27.090Z,170
2017-03-13T08:30:09.788Z,165
2017-03-13T08:30:50.431Z,165
2017-03-13T08:31:33.050Z,160
2017-03-13T08:32:14.708Z,160
2017-03-13T08:32:57.317Z,155
2017-03-13T08:33:38.899Z,150
2017-03-13T08:34:19.464Z,145
2017-03-13T08:35:00.028Z,145
2017-03-13T08:35:40.605Z,140
2017-03-13T08:36:21.162Z,135
2017-03-13T08:37:03.725Z,135
2017-03-13T08:37:44.334Z,130
2017-03-13T08:38:24.896Z,125
2017-03-13T08:39:12.295Z,120
2017-03-13T08:39:52.948Z,120
2017-03-13T08:40:34.573Z,120
2017-03-13T08:41:15.142Z,115
2017-03-13T08:42:01.771Z,115
2017-03-13T08:42:43.358Z,115
2017-03-13T08:43:24.044Z,115
2017-03-13T08:44:04.626Z,115
2017-03-13T08:44:46.336Z,120
2017-03-13T08:45:26.983Z,120
2017-03-13T08:46:12.288Z,120
2017-03-13T08:46:52.856Z,125
2017-03-13T08:47:33.552Z,130
2017-03-13T08:48:14.210Z,135
2017-03-13T08:48:55.822Z,135
2017-03-13T08:49:38.422Z,135
2017-03-13T08:50:21.128Z,135
2017-03-13T08:51:02.681Z,140
2017-03-13T08:51:44.273Z,140
2017-03-13T08:52:24.831Z,140
2017-03-13T08:53:05.406Z,145
2017-03-13T08:53:45.980Z,145
2017-03-13T08:54:26.561Z,145
2017-03-13T08:55:07.219Z,150
2017-03-13T08:55:47.880Z,150
2017-03-13T08:56:28.451Z,150
2017-03-13T08:57:10.065Z,155
2017-03-13T08:57:50.726Z,160
2017-03-13T08:58:31.460Z,160
2017-03-13T08:59:12.023Z,165
2017-03-13T08:59:52.697Z,165
2017-03-13T09:00:38.990Z,165
2017-03-13T09:01:20.589Z,160
2017-03-13T09:02:01.156Z,165
2017-03-13T09:02:41.846Z,170
2017-03-13T09:03:22.448Z,165
2017-03-13T09:04:03.201Z,170
2017-03-13T09:04:43.902Z,170
2017-03-13T09:05:24.553Z,170
2017-03-13T09:06:05.205Z,170
2017-03-13T09:06:45.865Z,170
2017-03-13T09:07:26.521Z,170
2017-03-13T09:08:07.167Z,175
2017-03-13T09:08:47.826Z,175
2017-03-13T09:09:28.514Z,175
2017-03-13T09:10:09.121Z,175
2017-03-13T09:10:50.817Z,175
2017-03-13T09:11:31.464Z,175
2017-03-13T09:12:12.158Z,175
2017-03-13T09:12:52.722Z,175
2017-03-13T09:13:33.409Z,170
2017-03-13T09:14:14.068Z,180
2017-03-13T09:14:54.724Z,180
2017-03-13T09:15:35.372Z,175
2017-03-13T09:16:16.955Z,175
2017-03-13T09:16:57.642Z,175
2017-03-13T09:17:38.265Z,180
2017-03-13T09:18:18.909Z,185
2017-03-13T09:18:59.518Z,185
2017-03-13T09:19:40.220Z,185
2017-03-13T09:20:20.788Z,185
2017-03-13T09:21:01.491Z,185
2017-03-13T09:21:42.109Z,185
2017-03-13T09:22:22.821Z,185
2017-03-13T09:23:03.472Z,190
2017-03-13T09:23:44.094Z,185
2017-03-13T09:24:24.763Z,190
2017-03-13T09:25:06.441Z,190
2017-03-13T09:25:53.962Z,190
2017-03-13T09:26:35.635Z,190
2017-03-13T09:27:20.999Z,195
2017-03-13T09:28:02.659Z,195
2017-03-13T09:28:44.262Z,195
2017-03-13T09:29:24.827Z,200
2017-03-13T09:30:12.210Z,200
2017-03-13T09:30:53.936Z,205
2017-03-13T09:31:34.501Z,205
2017-03-13T09:32:15.097Z,205
2017-03-13T09:32:57.706Z,210
2017-03-13T09:33:38.286Z,210
2017-03-13T09:34:18.940Z,210
2017-03-13T09:34:59.532Z,210
2017-03-13T09:35:40.239Z,210
2017-03-13T09:36:21.871Z,215
2017-03-13T09:37:02.541Z,215
2017-03-13T09:37:43.745Z,220
2017-03-13T09:38:30.280Z,220
2017-03-13T09:39:12.952Z,220
2017-03-13T09:39:55.601Z,220
2017-03-13T09:40:42.787Z,225
2017-03-13T09:41:23.479Z,230
2017-03-13T09:42:04.108Z,225
2017-03-13T09:42:44.834Z,225
2017-03-13T09:43:25.590Z,225
2017-03-13T09:44:07.234Z,225
2017-03-13T09:44:48.879Z,225
2017-03-13T09:45:29.534Z,230
2017-03-13T09:46:10.184Z,220
2017-03-13T09:46:52.763Z,235
2017-03-13T09:47:33.432Z,230
2017-03-13T09:48:15.101Z,235
2017-03-13T09:48:56.784Z,225
2017-03-13T09:49:42.279Z,225
2017-03-13T09:50:22.849Z,220
2017-03-13T09:51:03.457Z,220
2017-03-13T09:51:45.128Z,215
2017-03-13T09:52:25.815Z,215
2017-03-13T09:53:06.409Z,210
2017-03-13T09:53:47.094Z,215
2017-03-13T09:54:27.746Z,210
2017-03-13T09:55:09.423Z,210
2017-03-13T09:55:50.179Z,210
2017-03-13T09:56:30.833Z,205
2017-03-13T09:57:12.511Z,210
2017-03-13T09:57:53.161Z,210
2017-03-13T09:58:33.793Z,210
2017-03-13T09:59:14.459Z,205
2017-03-13T09:59:55.119Z,225
2017-03-13T10:00:35.760Z,210
2017-03-13T10:01:16.426Z,210
2017-03-13T10:01:57.064Z,210
2017-03-13T10:02:38.746Z,205
2017-03-13T10:03:19.414Z,205
2017-03-13T10:04:00.047Z,210
2017-03-13T10:04:41.726Z,210
2017-03-13T10:05:22.373Z,210
2017-03-13T10:06:03.058Z,205
2017-03-13T10:06:43.692Z,210
2017-03-13T10:07:24.522Z,210
2017-03-13T10:08:05.270Z,215
2017-03-13T10:08:46.041Z,210
2017-03-13T10:09:26.685Z,215
2017-03-13T10:10:07.262Z,210
2017-03-13T10:10:48.000Z,215
2017-03-13T10:11:28.633Z,215
2017-03-13T10:12:09.405Z,215
2017-03-13T10:12:50.167Z,215
2017-03-13T10:13:30.917Z,220
2017-03-13T10:14:11.679Z,215
2017-03-13T10:14:52.241Z,200
2017-03-13T10:15:32.871Z,210
2017-03-13T10:16:13.544Z,220
2017-03-13T10:16:54.180Z,220
2017-03-13T10:17:34.833Z,220
2017-03-13T10:18:16.495Z,220
2017-03-13T10:19:01.963Z,220
2017-03-13T10:19:42.533Z,220
2017-03-13T10:20:23.179Z,220
2017-03-13T10:21:03.837Z,225
2017-03-13T10:21:44.406Z,230
2017-03-13T10:22:25.146Z,235
2017-03-13T10:23:05.703Z,235
2017-03-13T10:23:46.390Z,230
2017-03-13T10:24:26.989Z,235
2017-03-13T10:25:07.603Z,235
2017-03-13T10:25:48.294Z,240
2017-03-13T10:26:30.930Z,240
2017-03-13T10:27:11.554Z,235
2017-03-13T10:27:52.200Z,235
2017-03-13T10:28:32.956Z,235
2017-03-13T10:29:13.713Z,240
2017-03-13T10:29:54.509Z,235
2017-03-13T10:30:35.072Z,245
2017-03-13T10:31:15.772Z,235
2017-03-13T10:31:56.430Z,225
2017-03-13T10:32:36.986Z,220
2017-03-13T10:33:17.616Z,220
2017-03-13T10:33:58.275Z,215
2017-03-13T10:34:38.935Z,220
2017-03-13T10:35:19.596Z,210
2017-03-13T10:36:00.242Z,205
2017-03-13T10:36:40.903Z,210
2017-03-13T10:37:21.535Z,210
2017-03-13T10:38:02.204Z,210
2017-03-13T10:38:42.853Z,210
2017-03-13T10:39:23.495Z,205
2017-03-13T10:40:04.131Z,200
2017-03-13T10:40:44.794Z,195
2017-03-13T10:41:25.427Z,195
2017-03-13T10:42:06.102Z,195
2017-03-13T10:42:46.785Z,190
2017-03-13T10:43:27.396Z,195
2017-03-13T10:44:08.054Z,195
2017-03-13T10:44:48.618Z,200
2017-03-13T10:45:29.254Z,200
2017-03-13T10:46:09.897Z,200
2017-03-13T10:46:50.458Z,205
2017-03-13T10:47:31.212Z,205
2017-03-13T10:48:11.864Z,200
2017-03-13T10:48:52.457Z,200
2017-03-13T10:49:33.092Z,200
2017-03-13T10:50:13.716Z,205
2017-03-13T10:50:54.373Z,205
2017-03-13T10:51:35.064Z,200
2017-03-13T10:52:15.692Z,205
2017-03-13T10:52:56.325Z,205
2017-03-13T10:53:36.979Z,205
2017-03-13T10:54:17.640Z,205
2017-03-13T10:54:58.294Z,220
2017-03-13T10:55:38.863Z,205
2017-03-13T10:56:19.523Z,205
2017-03-13T10:57:00.163Z,210
2017-03-13T10:57:40.824Z,205
2017-03-13T10:58:21.502Z,205
2017-03-13T10:59:02.122Z,205
2017-03-13T10:59:42.794Z,205
2017-03-13T11:00:23.459Z,205
2017-03-13T11:01:04.019Z,205
2017-03-13T11:01:44.610Z,205
2017-03-13T11:02:26.284Z,200
2017-03-13T11:03:06.885Z,200
2017-03-13T11:03:47.453Z,200
2017-03-13T11:04:29.064Z,200
2017-03-13T11:05:09.741Z,200
2017-03-13T11:05:50.320Z,200
2017-03-13T11:06:30.871Z,200
2017-03-13T11:07:11.481Z,200
2017-03-13T11:07:52.128Z,205
2017-03-13T11:08:32.723Z,200
2017-03-13T11:09:13.284Z,205
2017-03-13T11:09:53.923Z,205
2017-03-13T11:10:34.569Z,205
2017-03-13T11:11:15.193Z,205
2017-03-13T11:11:55.856Z,210
2017-03-13T11:12:36.513Z,210
2017-03-13T11:13:17.159Z,205
2017-03-13T11:13:57.808Z,205
2017-03-13T11:14:38.452Z,205
2017-03-13T11:15:19.135Z,205
2017-03-13T11:15:59.771Z,205
2017-03-13T11:16:40.440Z,205
2017-03-13T11:17:21.064Z,205
2017-03-13T11:18:01.717Z,205
2017-03-13T11:18:42.367Z,205
2017-03-13T11:19:22.969Z,205
2017-03-13T11:20:03.531Z,205
2017-03-13T11:20:44.144Z,205
2017-03-13T11:21:24.709Z,205
2017-03-13T11:22:05.335Z,205
2017-03-13T11:22:45.997Z,205
2017-03-13T11:23:26.581Z,210
2017-03-13T11:24:07.142Z,210
2017-03-13T11:24:47.740Z,210
2017-03-13T11:25:28.402Z,230
2017-03-13T11:26:09.091Z,210
2017-03-13T11:26:49.663Z,210
2017-03-13T11:27:30.241Z,210
2017-03-13T11:28:10.949Z,210
2017-03-13T11:28:52.523Z,210
2017-03-13T11:29:33.173Z,210
2017-03-13T11:30:13.830Z,210
2017-03-13T11:30:54.473Z,210
2017-03-13T11:31:35.131Z,210
2017-03-13T11:32:15.787Z,210
2017-03-13T11:32:56.438Z,210
2017-03-13T11:33:37.091Z,210
2017-03-13T11:34:17.650Z,210
2017-03-13T11:34:58.263Z,210
2017-03-13T11:35:38.921Z,210
2017-03-13T11:36:19.600Z,210
2017-03-13T11:37:00.159Z,210
2017-03-13T11:37:40.773Z,210
2017-03-13T11:38:21.423Z,215
2017-03-13T11:39:02.108Z,210
2017-03-13T11:39:42.766Z,210
2017-03-13T11:40:23.426Z,210
2017-03-13T11:41:04.067Z,210
2017-03-13T11:41:44.731Z,210
2017-03-13T11:42:25.380Z,210
2017-03-13T11:43:06.029Z,210
2017-03-13T11:43:47.720Z,210
2017-03-13T11:44:28.286Z,220
2017-03-13T11:45:08.971Z,210
2017-03-13T11:45:49.622Z,210
2017-03-13T11:46:30.214Z,210
2017-03-13T11:47:10.779Z,210
2017-03-13T11:47:51.381Z,210
2017-03-13T11:48:32.031Z,210
2017-03-13T11:49:12.752Z,210
2017-03-13T11:49:53.320Z,210
2017-03-13T11:50:34.012Z,210
2017-03-13T11:51:14.653Z,210
2017-03-13T11:51:55.336Z,215
2017-03-13T11:52:35.894Z,220
2017-03-13T11:53:17.533Z,210
2017-03-13T11:53:58.178Z,210
2017-03-13T11:54:38.878Z,210
2017-03-13T11:55:19.527Z,210
2017-03-13T11:56:00.125Z,210
2017-03-13T11:56:40.785Z,215
2017-03-13T11:57:21.437Z,215
2017-03-13T11:58:02.097Z,210
2017-03-13T11:58:42.750Z,215
2017-03-13T11:59:23.405Z,215
2017-03-13T12:00:04.079Z,215
2017-03-13T12:00:44.711Z,215
2017-03-13T12:01:25.364Z,215
2017-03-13T12:02:07.041Z,215
2017-03-13T12:02:47.689Z,210
2017-03-13T12:03:28.346Z,215
2017-03-13T12:04:09.039Z,220
2017-03-13T12:04:49.662Z,215
2017-03-13T12:05:30.299Z,215
2017-03-13T12:06:10.961Z,215
2017-03-13T12:06:51.614Z,215
2017-03-13T12:07:32.262Z,210
2017-03-13T12:08:12.916Z,215
2017-03-13T12:08:53.553Z,215
2017-03-13T12:09:34.222Z,215
2017-03-13T12:10:14.880Z,215
2017-03-13T12:10:55.525Z,215
2017-03-13T12:11:36.178Z,215
2017-03-13T12:12:16.846Z,215
2017-03-13T12:12:57.471Z,215
2017-03-13T12:13:38.144Z,215
2017-03-13T12:14:18.787Z,215
2017-03-13T12:14:59.487Z,215
2017-03-13T12:15:40.058Z,215
2017-03-13T12:16:20.650Z,215
2017-03-13T12:17:01.316Z,215
2017-03-13T12:17:41.890Z,215
2017-03-13T12:18:22.465Z,215
2017-03-13T12:19:03.049Z,215
2017-03-13T12:19:43.709Z,215
2017-03-13T12:20:24.277Z,215
2017-03-13T12:21:04.912Z,215
2017-03-13T12:21:45.500Z,215
2017-03-13T12:22:26.062Z,215
2017-03-13T12:23:06.662Z,215
2017-03-13T12:23:47.324Z,215
2017-03-13T12:24:27.909Z,215
2017-03-13T12:25:08.520Z,215
2017-03-13T12:25:49.174Z,215
2017-03-13T12:26:29.842Z,220
2017-03-13T12:27:10.477Z,220
2017-03-13T12:27:51.136Z,215
2017-03-13T12:28:31.786Z,215
2017-03-13T12:29:12.438Z,215
2017-03-13T12:29:53.034Z,215
2017-03-13T12:30:33.589Z,215
2017-03-13T12:31:14.195Z,215
2017-03-13T12:31:54.855Z,220
2017-03-13T12:32:35.531Z,215
2017-03-13T12:33:16.113Z,210
2017-03-13T12:33:56.708Z,215
2017-03-13T12:34:37.380Z,215
2017-03-13T12:35:18.075Z,215
2017-03-13T12:35:58.698Z,215
2017-03-13T12:36:39.354Z,215
2017-03-13T12:37:20.005Z,235
2017-03-13T12:38:00.658Z,215
2017-03-13T12:38:41.311Z,215
2017-03-13T12:39:21.878Z,215
2017-03-13T12:40:02.472Z,215
2017-03-13T12:40:43.132Z,215
2017-03-13T12:41:23.824Z,215
2017-03-13T12:42:04.391Z,215
2017-03-13T12:42:44.996Z,215
2017-03-13T12:43:25.645Z,215
2017-03-13T12:44:07.251Z,215
2017-03-13T12:44:47.914Z,215
2017-03-13T12:45:29.589Z,215
2017-03-13T12:46:10.237Z,215
2017-03-13T12:46:50.897Z,215
2017-03-13T12:47:31.554Z,215
2017-03-13T12:48:12.193Z,215
2017-03-13T12:48:52.852Z,215
2017-03-13T12:49:33.497Z,215
2017-03-13T12:50:14.110Z,215
2017-03-13T12:50:54.770Z,215
2017-03-13T12:51:35.415Z,215
2017-03-13T12:54:17.925Z,215
2017-03-13T12:54:58.613Z,215
2017-03-13T12:55:39.243Z,215
2017-03-13T12:56:19.896Z,215
2017-03-13T12:57:00.560Z,215
2017-03-13T12:57:41.195Z,215
2017-03-13T12:58:21.855Z,215
2017-03-13T12:59:02.506Z,215
2017-03-13T12:59:43.159Z,220
2017-03-13T13:00:23.806Z,215
2017-03-13T13:01:04.458Z,215
2017-03-13T13:01:45.115Z,215
2017-03-13T13:02:25.691Z,215
2017-03-13T13:03:06.322Z,215
2017-03-13T13:03:47.981Z,215
2017-03-13T13:04:28.656Z,215
2017-03-13T13:05:09.302Z,215
2017-03-13T13:05:49.993Z,215
2017-03-13T13:06:30.554Z,215
2017-03-13T13:07:11.151Z,215
2017-03-13T13:07:51.819Z,220
2017-03-13T13:08:32.503Z,215
2017-03-13T13:09:13.069Z,215
2017-03-13T13:09:54.684Z,215
2017-03-13T13:10:35.343Z,215
2017-03-13T13:11:16.008Z,215
2017-03-13T13:11:57.671Z,215
2017-03-13T13:12:38.347Z,215
2017-03-13T13:13:18.979Z,215
2017-03-13T13:13:59.619Z,215
2017-03-13T13:14:40.280Z,215
2017-03-13T13:15:20.941Z,220
2017-03-13T13:16:01.586Z,215
2017-03-13T13:16:42.241Z,215
2017-03-13T13:17:22.895Z,215
2017-03-13T13:18:03.541Z,220
2017-03-13T13:18:44.191Z,215
2017-03-13T13:19:24.841Z,210
2017-03-13T13:20:05.532Z,200
2017-03-13T13:20:46.165Z,205
2017-03-13T13:21:26.831Z,215
2017-03-13T13:22:07.477Z,215
2017-03-13T13:22:48.117Z,215
2017-03-13T13:23:28.778Z,220
2017-03-13T13:24:09.446Z,225
2017-03-13T13:24:50.137Z,220
2017-03-13T13:25:30.831Z,215
2017-03-13T13:26:11.483Z,215
2017-03-13T13:26:52.133Z,215
2017-03-13T13:27:32.791Z,215
2017-03-13T13:28:13.447Z,215
2017-03-13T13:28:55.117Z,215
2017-03-13T13:29:35.774Z,215
2017-03-13T13:30:18.392Z,225
2017-03-13T13:30:59.060Z,215
2017-03-13T13:31:39.679Z,215
2017-03-13T13:32:20.324Z,215
2017-03-13T13:33:00.991Z,210
2017-03-13T13:33:41.645Z,215
2017-03-13T13:34:22.283Z,215
2017-03-13T13:35:02.963Z,215
2017-03-13T13:35:43.696Z,215
2017-03-13T13:36:24.351Z,215
2017-03-13T13:37:05.012Z,215
2017-03-13T13:37:45.657Z,210
2017-03-13T13:38:27.347Z,210
2017-03-13T13:39:07.989Z,215
2017-03-13T13:39:48.637Z,215
2017-03-13T13:40:30.206Z,215
2017-03-13T13:41:10.859Z,215
2017-03-13T13:41:51.517Z,220
2017-03-13T13:42:32.175Z,220
2017-03-13T13:43:12.827Z,215
2017-03-13T13:43:53.503Z,220
2017-03-13T13:44:34.130Z,230
2017-03-13T13:45:14.698Z,230
2017-03-13T13:45:55.362Z,235
2017-03-13T13:46:36.029Z,240
2017-03-13T13:47:16.586Z,235
2017-03-13T13:47:57.206Z,230
2017-03-13T13:48:37.850Z,250
2017-03-13T13:49:18.541Z,235
2017-03-13T13:50:00.212Z,225
2017-03-13T13:50:40.874Z,230
2017-03-13T13:51:21.527Z,230
2017-03-13T13:52:02.175Z,230
2017-03-13T13:52:42.828Z,230
2017-03-13T13:53:23.472Z,240
2017-03-13T13:54:04.221Z,245
2017-03-13T13:54:44.793Z,235
2017-03-13T13:55:25.395Z,245
2017-03-13T13:56:06.054Z,240
2017-03-13T13:56:46.701Z,245
2017-03-13T13:57:27.374Z,245
2017-03-13T13:58:08.075Z,250
2017-03-13T13:58:48.805Z,250
2017-03-13T13:59:29.492Z,255
2017-03-13T14:00:10.096Z,250
2017-03-13T14:00:50.803Z,255
2017-03-13T14:01:31.534Z,245
2017-03-13T14:02:12.277Z,255
2017-03-13T14:02:52.939Z,255
2017-03-13T14:03:34.589Z,250
2017-03-13T14:04:15.578Z,255
2017-03-13T14:04:56.167Z,255
2017-03-13T14:05:36.849Z,260
2017-03-13T14:06:17.498Z,255
2017-03-13T14:06:59.186Z,255
2017-03-13T14:07:39.828Z,255
2017-03-13T14:08:20.482Z,255
2017-03-13T14:09:01.122Z,255
2017-03-13T14:09:41.774Z,255
2017-03-13T14:10:22.445Z,260
2017-03-13T14:11:07.601Z,255
2017-03-13T14:11:48.152Z,255
2017-03-13T14:12:28.801Z,250
2017-03-13T14:13:09.456Z,250
2017-03-13T14:13:50.102Z,265
2017-03-13T14:14:30.766Z,270
2017-03-13T14:15:11.514Z,270
2017-03-13T14:15:52.182Z,270
2017-03-13T14:16:32.822Z,265
2017-03-13T14:17:18.077Z,260
2017-03-13T14:17:58.739Z,265
2017-03-13T14:18:40.409Z,270
2017-03-13T14:19:21.090Z,275
2017-03-13T14:20:01.657Z,265
2017-03-13T14:20:42.278Z,255
2017-03-13T14:21:22.856Z,260
2017-03-13T14:22:03.526Z,255
2017-03-13T14:22:44.277Z,250
2017-03-13T14:23:24.919Z,245
2017-03-13T14:24:05.518Z,245
2017-03-13T14:24:46.185Z,235
2017-03-13T14:25:26.833Z,245
2017-03-13T14:26:07.562Z,245
2017-03-13T14:26:48.310Z,245
2017-03-13T14:27:29.012Z,240
2017-03-13T14:28:09.655Z,230
2017-03-13T14:28:50.334Z,235
2017-03-13T14:29:30.973Z,235
2017-03-13T14:30:11.615Z,230
2017-03-13T14:30:52.211Z,230
2017-03-13T14:31:32.784Z,225
2017-03-13T14:32:13.396Z,225
2017-03-13T14:32:54.021Z,225
2017-03-13T14:33:34.612Z,230
2017-03-13T14:34:15.186Z,230
2017-03-13T14:34:57.818Z,235
2017-03-13T14:35:38.477Z,230
2017-03-13T14:36:19.126Z,240
2017-03-13T14:37:01.839Z,235
2017-03-13T14:37:43.505Z,235
2017-03-13T14:38:24.168Z,240
2017-03-13T14:39:04.826Z,240
2017-03-13T14:47:31.985Z,230
2017-03-13T14:48:12.641Z,230
2017-03-13T14:48:54.242Z,230
2017-03-13T14:49:34.866Z,225
2017-03-13T14:50:15.460Z,220
2017-03-13T14:50:56.020Z,220
2017-03-13T14:51:36.638Z,220
2017-03-13T14:52:17.294Z,210
2017-03-13T14:52:57.976Z,210
2017-03-13T14:53:38.552Z,210
2017-03-13T14:54:19.131Z,210
2017-03-13T14:54:59.801Z,210
2017-03-13T14:55:40.444Z,215
2017-03-13T14:56:21.021Z,215
2017-03-13T14:57:01.635Z,215
2017-03-13T14:57:42.295Z,210
2017-03-13T14:58:22.952Z,200
2017-03-13T14:59:03.603Z,200
2017-03-13T14:59:44.271Z,205
2017-03-13T15:00:24.850Z,195
2017-03-13T15:01:05.472Z,200
2017-03-13T15:01:46.123Z,195
2017-03-13T15:02:26.684Z,195
2017-03-13T15:03:07.320Z,190
2017-03-13T15:03:47.967Z,185
2017-03-13T15:04:28.547Z,180
2017-03-13T15:05:09.169Z,175
2017-03-13T15:05:49.831Z,165
2017-03-13T15:06:30.414Z,170
2017-03-13T15:07:10.993Z,160
2017-03-13T15:07:51.656Z,155
2017-03-13T15:08:32.337Z,160
2017-03-13T15:09:13.027Z,160
2017-03-13T15:09:53.616Z,160
2017-03-13T15:10:34.206Z,155
2017-03-13T15:11:14.850Z,160
2017-03-13T15:11:55.501Z,160
2017-03-13T15:12:36.086Z,155
2017-03-13T15:13:16.650Z,155
2017-03-13T15:13:57.258Z,150
2017-03-13T15:14:37.905Z,150
2017-03-13T15:15:18.558Z,155
2017-03-13T15:15:59.417Z,160
2017-03-13T15:16:40.072Z,160
2017-03-13T15:17:20.726Z,160
2017-03-13T15:18:01.376Z,160
2017-03-13T15:18:42.023Z,165
2017-03-13T15:19:22.682Z,165
2017-03-13T15:20:03.332Z,165
2017-03-13T15:20:44.074Z,165
2017-03-13T15:21:24.736Z,165
2017-03-13T15:22:05.392Z,165
2017-03-13T15:22:46.160Z,165
2017-03-13T15:23:26.787Z,165
2017-03-13T15:24:07.462Z,165
2017-03-13T15:24:48.114Z,165
2017-03-13T15:25:33.302Z,165
2017-03-13T15:26:13.871Z,165
2017-03-13T15:26:59.286Z,160
2017-03-13T15:27:39.930Z,155
2017-03-13T15:28:20.499Z,155
2017-03-13T15:29:01.076Z,155
2017-03-13T15:29:41.665Z,155
2017-03-13T15:30:22.339Z,155
2017-03-13T15:31:02.899Z,155
2017-03-13T15:31:43.541Z,150
2017-03-13T15:32:26.240Z,150
2017-03-13T15:33:06.835Z,145
2017-03-13T15:33:54.323Z,145
2017-03-13T15:34:34.887Z,145
2017-03-13T15:35:15.525Z,140
2017-03-13T15:35:56.095Z,140
2017-03-13T15:36:36.723Z,135
2017-03-13T15:37:22.089Z,135
2017-03-13T15:38:02.660Z,135
2017-03-13T15:38:44.324Z,135
2017-03-13T15:39:24.976Z,130
2017-03-13T15:40:05.545Z,130
2017-03-13T15:41:02.765Z,125
2017-03-13T15:41:43.404Z,120
2017-03-13T15:42:25.085Z,120
2017-03-13T15:43:16.283Z,115
2017-03-13T15:43:57.963Z,115
2017-03-13T15:44:43.332Z,115
2017-03-13T15:45:25.006Z,115
2017-03-13T15:46:11.296Z,110
2017-03-13T15:46:51.948Z,105
2017-03-13T15:47:33.630Z,105
2017-03-13T15:48:15.298Z,105
2017-03-13T15:48:55.946Z,105
2017-03-13T15:49:41.316Z,105
2017-03-13T15:50:28.520Z,105
2017-03-13T15:51:09.112Z,105
2017-03-13T15:51:49.701Z,105
2017-03-13T15:52:30.372Z,105
2017-03-13T15:53:16.560Z,100